Time;durP1;ratioP1;P1;durP2;ratioP2;P2;SDS_P1;SDS_P2;PMS_P1;PMS_P2;Temp;Humidity;BMP_temperature;BMP_pressure;BME280_temperature;BME280_humidity;BME280_pressure;Samples;Min_cycle;Max_cycle;Signal;HPM_P1;HPM_P2
2023/11/18 00:01:25;;;;;;;;;;;;;;;;;;5060565;28;19951;-79
2023/11/18 00:03:52;;;;;;;;;;;;;;;;;;5064370;28;19935;-78
2023/11/18 00:06:19;;;;;;;;;;;;;;;;;;5065895;28;19924;-78
2023/11/18 00:08:45;;;;;;;;;;;;;;;;;;5050717;28;19924;-79
2023/11/18 00:11:13;;;;;;;;;;;;;;;;;;5061609;28;20323;-78
2023/11/18 00:13:39;;;;;;;;;;;;;;;;;;5065437;28;19925;-79
2023/11/18 00:16:06;;;;;;;;;;;;;;;;;;5065307;28;19935;-78
2023/11/18 00:18:32;;;;;;;;;;;;;;;;;;5070679;28;19987;-78
2023/11/18 00:20:58;;;;;;;;;;;;;;;;;;5066475;28;19931;-77
2023/11/18 00:23:26;;;;;;;;;;;;;;;;;;5063674;28;19925;-79
2023/11/18 00:25:53;;;;;;;;;;;;;;;;;;5072109;28;19934;-78
2023/11/18 00:28:20;;;;;;;;;;;;;;;;;;5066538;28;19931;-77
2023/11/18 00:30:46;;;;;;;;;;;;;;;;;;5054244;28;19975;-80
2023/11/18 00:33:13;;;;;;;;;;;;;;;;;;5064712;28;20732;-79
2023/11/18 00:35:41;;;;;;;;;;;;;;;;;;5061005;28;19929;-79
2023/11/18 00:38:07;;;;;;;;;;;;;;;;;;5072026;28;19925;-79
2023/11/18 00:40:35;;;;;;;;;;;;;;;;;;5063041;28;19924;-78
2023/11/18 00:43:02;;;;;;;;;;;;;;;;;;5062881;28;20336;-78
2023/11/18 00:45:29;;;;;;;;;;;;;;;;;;5060971;28;19931;-79
2023/11/18 00:47:57;;;;;;;;;;;;;;;;;;5062252;28;19931;-78
2023/11/18 00:50:23;;;;;;;;;;;;;;;;;;5070421;28;19931;-78
2023/11/18 00:52:50;;;;;;;;;;;;;;;;;;5061110;28;19924;-79
2023/11/18 00:55:17;;;;;;;;;;;;;;;;;;5063504;28;20054;-78
2023/11/18 00:57:44;;;;;;;;;;;;;;;;;;5061434;28;20385;-78
2023/11/18 01:00:13;;;;;;;;;;;;;;;;;;5062251;28;19968;-78
2023/11/18 01:02:40;;;;;;;;;;;;;;;;;;5067396;28;20373;-80
2023/11/18 01:05:07;;;;;;;;;;;;;;;;;;5064279;28;19929;-79
2023/11/18 01:07:33;;;;;;;;;;;;;;;;;;5063908;28;19924;-79
2023/11/18 01:10:00;;;;;;;;;;;;;;;;;;5064609;28;20278;-77
2023/11/18 01:12:26;;;;;;;;;;;;;;;;;;5061853;28;20397;-79
2023/11/18 01:14:53;;;;;;;;;;;;;;;;;;5059896;28;20019;-79
2023/11/18 01:17:22;;;;;;;;;;;;;;;;;;5070161;28;19947;-79
2023/11/18 01:19:48;;;;;;;;;;;;;;;;;;5064149;28;19925;-79
2023/11/18 01:22:15;;;;;;;;;;;;;;;;;;5062294;28;19928;-81
2023/11/18 01:24:41;;;;;;;;;;;;;;;;;;5047984;28;19928;-79
2023/11/18 01:27:09;;;;;;;;;;;;;;;;;;5063954;28;20362;-78
2023/11/18 01:29:39;;;;;;;;;;;;;;;;;;5063147;28;20002;-79
2023/11/18 01:32:09;;;;;;;;;;;;;;;;;;5059073;28;19976;-80
2023/11/18 01:34:37;;;;;;;;;;;;;;;;;;5050532;28;19986;-79
2023/11/18 01:37:07;;;;;;;;;;;;;;;;;;5049262;28;20015;-80
2023/11/18 01:39:33;;;;;;;;;;;;;;;;;;5063331;28;19925;-79
2023/11/18 01:42:00;;;;;;;;;;;;;;;;;;5063677;28;19948;-79
2023/11/18 01:44:28;;;;;;;;;;;;;;;;;;5065567;28;20236;-80
2023/11/18 01:46:55;;;;;;;;;;;;;;;;;;5066480;28;20441;-80
2023/11/18 01:49:22;;;;;;;;;;;;;;;;;;5069041;28;20021;-79
2023/11/18 01:51:49;;;;;;;;;;;;;;;;;;5041585;28;19925;-79
2023/11/18 01:54:18;;;;;;;;;;;;;;;;;;5062052;28;19929;-79
2023/11/18 01:56:45;;;;;;;;;;;;;;;;;;5057955;28;19924;-79
2023/11/18 01:59:17;;;;;;;;;;;;;;;;;;5046448;28;19950;-80
2023/11/18 02:01:44;;;;;;;;;;;;;;;;;;5068144;28;19925;-78
2023/11/18 02:04:12;;;;;;;;;;;;;;;;;;5046526;28;19925;-79
2023/11/18 02:06:39;;;;;;;;;;;;;;;;;;5053611;28;19972;-79
2023/11/18 02:09:06;;;;;;;;;;;;;;;;;;5065812;28;19958;-78
2023/11/18 02:11:32;;;;;;;;;;;;;;;;;;5064115;28;19932;-79
2023/11/18 02:14:02;;;;;;;;;;;;;;;;;;5063695;28;19971;-79
2023/11/18 02:16:29;;;;;;;;;;;;;;;;;;5066928;28;19925;-80
2023/11/18 02:18:55;;;;;;;;;;;;;;;;;;5060623;28;19925;-80
2023/11/18 02:21:23;;;;;;;;;;;;;;;;;;5060567;28;19959;-80
2023/11/18 02:23:49;;;;;;;;;;;;;;;;;;5062648;28;19924;-78
2023/11/18 02:26:16;;;;;;;;;;;;;;;;;;5061951;28;19931;-78
2023/11/18 02:28:43;;;;;;;;;;;;;;;;;;5059887;28;20011;-78
2023/11/18 02:31:12;;;;;;;;;;;;;;;;;;5046891;28;20317;-79
2023/11/18 02:33:40;;;;;;;;;;;;;;;;;;5063851;28;19933;-79
2023/11/18 02:36:08;;;;;;;;;;;;;;;;;;5068257;28;20571;-79
2023/11/18 02:38:35;;;;;;;;;;;;;;;;;;5046872;28;19929;-80
2023/11/18 02:41:05;;;;;;;;;;;;;;;;;;5060542;28;19978;-79
2023/11/18 02:43:31;;;;;;;;;;;;;;;;;;5065173;28;20432;-80
2023/11/18 02:45:57;;;;;;;;;;;;;;;;;;5063730;28;20028;-79
2023/11/18 02:48:24;;;;;;;;;;;;;;;;;;5063535;28;19939;-78
2023/11/18 02:50:50;;;;;;;;;;;;;;;;;;5065572;28;19925;-78
2023/11/18 02:53:17;;;;;;;;;;;;;;;;;;5044057;28;19960;-79
2023/11/18 02:55:43;;;;;;;;;;;;;;;;;;5059895;28;20290;-79
2023/11/18 02:58:09;;;;;;;;;;;;;;;;;;5047532;28;20308;-78
2023/11/18 03:00:38;;;;;;;;;;;;;;;;;;5064391;28;19989;-79
2023/11/18 03:03:04;;;;;;;;;;;;;;;;;;5067192;28;19932;-78
2023/11/18 03:05:31;;;;;;;;;;;;;;;;;;5057234;28;19929;-80
2023/11/18 03:07:58;;;;;;;;;;;;;;;;;;5057522;28;19925;-79
2023/11/18 03:10:24;;;;;;;;;;;;;;;;;;5064587;28;19932;-79
2023/11/18 03:12:52;;;;;;;;;;;;;;;;;;5056394;28;19925;-81
2023/11/18 03:15:19;;;;;;;;;;;;;;;;;;5064775;28;19972;-79
2023/11/18 03:17:45;;;;;;;;;;;;;;;;;;5044645;28;20274;-79
2023/11/18 03:20:14;;;;;;;;;;;;;;;;;;5067328;28;19925;-79
2023/11/18 03:22:40;;;;;;;;;;;;;;;;;;5042584;28;20456;-79
2023/11/18 03:25:07;;;;;;;;;;;;;;;;;;5058759;28;19925;-80
2023/11/18 03:27:34;;;;;;;;;;;;;;;;;;5060435;28;20035;-80
2023/11/18 03:30:01;;;;;;;;;;;;;;;;;;5054096;28;19925;-80
2023/11/18 03:32:27;;;;;;;;;;;;;;;;;;5057426;28;19928;-78
2023/11/18 03:34:53;;;;;;;;;;;;;;;;;;5059850;28;20019;-80
2023/11/18 03:37:23;;;;;;;;;;;;;;;;;;5051095;28;19924;-79
2023/11/18 03:39:49;;;;;;;;;;;;;;;;;;5067677;28;19925;-80
2023/11/18 03:42:15;;;;;;;;;;;;;;;;;;5065487;28;20430;-80
2023/11/18 03:44:43;;;;;;;;;;;;;;;;;;5066106;28;19928;-79
2023/11/18 03:47:10;;;;;;;;;;;;;;;;;;5065857;28;19929;-80
2023/11/18 03:49:36;;;;;;;;;;;;;;;;;;5070010;28;19925;-79
2023/11/18 03:52:03;;;;;;;;;;;;;;;;;;5062804;28;20308;-79
2023/11/18 03:54:29;;;;;;;;;;;;;;;;;;5064348;28;19931;-78
2023/11/18 03:56:56;;;;;;;;;;;;;;;;;;5066750;28;19967;-79
2023/11/18 03:59:22;;;;;;;;;;;;;;;;;;5061809;28;19929;-79
2023/11/18 04:01:50;;;;;;;;;;;;;;;;;;5062594;28;19975;-78
2023/11/18 04:04:17;;;;;;;;;;;;;;;;;;5070304;28;19935;-80
2023/11/18 04:06:43;;;;;;;;;;;;;;;;;;5050327;28;19940;-78
2023/11/18 04:09:10;;;;;;;;;;;;;;;;;;5065650;28;19974;-78
2023/11/18 04:11:38;;;;;;;;;;;;;;;;;;5062695;28;20016;-79
2023/11/18 04:14:04;;;;;;;;;;;;;;;;;;5049173;28;20015;-79
2023/11/18 04:16:31;;;;;;;;;;;;;;;;;;5061399;28;19951;-78
2023/11/18 04:18:57;;;;;;;;;;;;;;;;;;5048682;28;19925;-79
2023/11/18 04:21:24;;;;;;;;;;;;;;;;;;5045979;28;19924;-79
2023/11/18 04:23:50;;;;;;;;;;;;;;;;;;5063484;28;20019;-78
2023/11/18 04:26:17;;;;;;;;;;;;;;;;;;5063828;28;20023;-80
2023/11/18 04:28:43;;;;;;;;;;;;;;;;;;5061376;28;20437;-79
2023/11/18 04:31:11;;;;;;;;;;;;;;;;;;5049601;28;19925;-78
2023/11/18 04:33:37;;;;;;;;;;;;;;;;;;5048674;28;19924;-77
2023/11/18 04:36:05;;;;;;;;;;;;;;;;;;5048770;28;19936;-78
2023/11/18 04:38:31;;;;;;;;;;;;;;;;;;5061913;28;20444;-79
2023/11/18 04:40:58;;;;;;;;;;;;;;;;;;5061693;28;19964;-77
2023/11/18 04:43:24;;;;;;;;;;;;;;;;;;5061526;28;19982;-80
2023/11/18 04:46:00;;;;;;;;;;;;;;;;;;5063595;28;19929;-80
2023/11/18 04:48:26;;;;;;;;;;;;;;;;;;5047645;28;19935;-78
2023/11/18 04:50:52;;;;;;;;;;;;;;;;;;5047970;28;20665;-78
2023/11/18 04:53:19;;;;;;;;;;;;;;;;;;5057298;28;19963;-78
2023/11/18 04:55:45;;;;;;;;;;;;;;;;;;5062578;28;20047;-78
2023/11/18 04:58:12;;;;;;;;;;;;;;;;;;5055012;28;20389;-78
2023/11/18 05:00:38;;;;;;;;;;;;;;;;;;5063115;28;19939;-79
2023/11/18 05:03:05;;;;;;;;;;;;;;;;;;5067383;28;19967;-78
2023/11/18 05:05:31;;;;;;;;;;;;;;;;;;5061886;28;19929;-79
2023/11/18 05:07:58;;;;;;;;;;;;;;;;;;5065141;28;19928;-78
2023/11/18 05:10:24;;;;;;;;;;;;;;;;;;5045961;28;19925;-78
2023/11/18 05:12:55;;;;;;;;;;;;;;;;;;5062467;28;19956;-78
2023/11/18 05:15:25;;;;;;;;;;;;;;;;;;5055605;28;20388;-78
2023/11/18 05:17:51;;;;;;;;;;;;;;;;;;5055333;28;20019;-78
2023/11/18 05:20:17;;;;;;;;;;;;;;;;;;5044969;28;19928;-80
2023/11/18 05:22:44;;;;;;;;;;;;;;;;;;5065735;28;19936;-78
2023/11/18 05:25:10;;;;;;;;;;;;;;;;;;5048370;28;19925;-80
2023/11/18 05:27:37;;;;;;;;;;;;;;;;;;5066551;28;19980;-78
2023/11/18 05:30:03;;;;;;;;;;;;;;;;;;5066421;28;19974;-79
2023/11/18 05:32:33;;;;;;;;;;;;;;;;;;5052720;28;19925;-79
2023/11/18 05:35:00;;;;;;;;;;;;;;;;;;5064701;28;19955;-79
2023/11/18 05:37:34;;;;;;;;;;;;;;;;;;5066259;28;19929;-78
2023/11/18 05:40:06;;;;;;;;;;;;;;;;;;5064323;28;19930;-81
2023/11/18 05:42:32;;;;;;;;;;;;;;;;;;5045066;28;20397;-80
2023/11/18 05:45:07;;;;;;;;;;;;;;;;;;5062628;28;19929;-79
2023/11/18 05:47:34;;;;;;;;;;;;;;;;;;5066159;28;19929;-81
2023/11/18 05:50:00;;;;;;;;;;;;;;;;;;5052282;28;19939;-79
2023/11/18 05:52:27;;;;;;;;;;;;;;;;;;5062519;28;19964;-81
2023/11/18 05:54:53;;;;;;;;;;;;;;;;;;5060283;28;20024;-79
2023/11/18 05:57:20;;;;;;;;;;;;;;;;;;5066483;28;19931;-79
2023/11/18 05:59:49;;;;;;;;;;;;;;;;;;5045576;28;20422;-78
2023/11/18 06:02:19;;;;;;;;;;;;;;;;;;5064939;28;19967;-79
2023/11/18 06:04:45;;;;;;;;;;;;;;;;;;5053466;28;19928;-79
2023/11/18 06:07:15;;;;;;;;;;;;;;;;;;5044038;28;19932;-78
2023/11/18 06:09:45;;;;;;;;;;;;;;;;;;5063150;28;19962;-80
2023/11/18 06:12:12;;;;;;;;;;;;;;;;;;5050190;28;19975;-79
2023/11/18 06:14:39;;;;;;;;;;;;;;;;;;5044449;28;19967;-79
2023/11/18 06:17:08;;;;;;;;;;;;;;;;;;5061827;28;19990;-80
2023/11/18 06:19:34;;;;;;;;;;;;;;;;;;5061050;28;19925;-79
2023/11/18 06:22:01;;;;;;;;;;;;;;;;;;5063187;28;19931;-79
2023/11/18 06:24:28;;;;;;;;;;;;;;;;;;5060251;28;19987;-79
2023/11/18 06:26:54;;;;;;;;;;;;;;;;;;5049278;28;19946;-80
2023/11/18 06:29:21;;;;;;;;;;;;;;;;;;5062169;28;19979;-79
2023/11/18 06:31:48;;;;;;;;;;;;;;;;;;5060878;28;20327;-79
2023/11/18 06:34:14;;;;;;;;;;;;;;;;;;5063552;28;19924;-78
2023/11/18 06:36:41;;;;;;;;;;;;;;;;;;5063188;28;20422;-78
2023/11/18 06:39:08;;;;;;;;;;;;;;;;;;5062547;28;20430;-78
2023/11/18 06:41:36;;;;;;;;;;;;;;;;;;5052992;28;20015;-79
2023/11/18 06:44:09;;;;;;;;;;;;;;;;;;5062953;28;19925;-79
2023/11/18 06:46:39;;;;;;;;;;;;;;;;;;5059704;28;20047;-80
2023/11/18 06:49:15;;;;;;;;;;;;;;;;;;5062234;28;19925;-79
2023/11/18 06:51:41;;;;;;;;;;;;;;;;;;5075684;28;19941;-78
2023/11/18 06:54:13;;;;;;;;;;;;;;;;;;5056123;28;20289;-80
2023/11/18 06:56:42;;;;;;;;;;;;;;;;;;5068151;28;20285;-78
2023/11/18 06:59:10;;;;;;;;;;;;;;;;;;5068724;28;20278;-78
2023/11/18 07:01:36;;;;;;;;;;;;;;;;;;5046455;28;20862;-78
2023/11/18 07:04:03;;;;;;;;;;;;;;;;;;5060711;28;19978;-78
2023/11/18 07:06:29;;;;;;;;;;;;;;;;;;5063922;28;19951;-79
2023/11/18 07:09:00;;;;;;;;;;;;;;;;;;5062755;28;19925;-78
2023/11/18 07:11:27;;;;;;;;;;;;;;;;;;5065211;28;19925;-79
2023/11/18 07:13:59;;;;;;;;;;;;;;;;;;5061755;28;19937;-77
2023/11/18 07:16:25;;;;;;;;;;;;;;;;;;5063099;28;19928;-78
2023/11/18 07:18:52;;;;;;;;;;;;;;;;;;5061676;28;20356;-76
2023/11/18 07:21:18;;;;;;;;;;;;;;;;;;5058897;28;20391;-79
2023/11/18 07:23:46;;;;;;;;;;;;;;;;;;5061075;28;20150;-79
2023/11/18 07:26:16;;;;;;;;;;;;;;;;;;5064383;28;20034;-78
2023/11/18 07:28:43;;;;;;;;;;;;;;;;;;5059821;28;20396;-77
2023/11/18 07:31:10;;;;;;;;;;;;;;;;;;5042426;28;19931;-79
2023/11/18 07:33:36;;;;;;;;;;;;;;;;;;5060166;28;19963;-77
2023/11/18 07:36:05;;;;;;;;;;;;;;;;;;5061232;28;19936;-79
2023/11/18 07:38:34;;;;;;;;;;;;;;;;;;5063222;28;20035;-79
2023/11/18 07:41:02;;;;;;;;;;;;;;;;;;5063430;28;19928;-78
2023/11/18 07:43:29;;;;;;;;;;;;;;;;;;5061844;28;19924;-78
2023/11/18 07:45:55;;;;;;;;;;;;;;;;;;5057048;28;19975;-78
2023/11/18 07:48:22;;;;;;;;;;;;;;;;;;5056601;28;19924;-78
2023/11/18 07:50:48;;;;;;;;;;;;;;;;;;5057804;28;19925;-80
2023/11/18 07:53:15;;;;;;;;;;;;;;;;;;5061531;28;20028;-75
2023/11/18 07:55:42;;;;;;;;;;;;;;;;;;5066358;28;19925;-77
2023/11/18 07:58:11;;;;;;;;;;;;;;;;;;5062370;28;20427;-75
2023/11/18 08:00:38;;;;;;;;;;;;;;;;;;5060652;28;19931;-80
2023/11/18 08:03:07;;;;;;;;;;;;;;;;;;5061789;28;19924;-75
2023/11/18 08:05:33;;;;;;;;;;;;;;;;;;5055943;28;20266;-76
2023/11/18 08:07:59;;;;;;;;;;;;;;;;;;5060653;28;19932;-78
2023/11/18 08:10:26;;;;;;;;;;;;;;;;;;5055039;28;19956;-78
2023/11/18 08:12:54;;;;;;;;;;;;;;;;;;5061935;28;19948;-78
2023/11/18 08:15:20;;;;;;;;;;;;;;;;;;5059903;28;20416;-79
2023/11/18 08:17:47;;;;;;;;;;;;;;;;;;5044030;28;20011;-78
2023/11/18 08:20:16;;;;;;;;;;;;;;;;;;5057905;28;19929;-79
2023/11/18 08:22:46;;;;;;;;;;;;;;;;;;5047346;28;19932;-78
2023/11/18 08:25:12;;;;;;;;;;;;;;;;;;5061600;28;20538;-77
2023/11/18 08:27:39;;;;;;;;;;;;;;;;;;5065442;28;19925;-77
2023/11/18 08:30:10;;;;;;;;;;;;;;;;;;5048145;28;19928;-77
2023/11/18 08:32:37;;;;;;;;;;;;;;;;;;5063940;28;19944;-77
2023/11/18 08:35:05;;;;;;;;;;;;;;;;;;5064419;28;19933;-79
2023/11/18 08:37:32;;;;;;;;;;;;;;;;;;5062117;28;19951;-79
2023/11/18 08:40:00;;;;;;;;;;;;;;;;;;5043093;28;19998;-79
2023/11/18 08:42:27;;;;;;;;;;;;;;;;;;5047241;28;19932;-78
2023/11/18 08:44:55;;;;;;;;;;;;;;;;;;5048790;28;19928;-76
2023/11/18 08:47:21;;;;;;;;;;;;;;;;;;5047874;28;19932;-78
2023/11/18 08:49:48;;;;;;;;;;;;;;;;;;5064857;28;19960;-77
2023/11/18 08:52:14;;;;;;;;;;;;;;;;;;5059402;28;19964;-79
2023/11/18 08:55:13;;;;;;;;;;;;;;;;;;5070313;28;20012;-77
2023/11/18 08:57:27;;;;;;;;;;;;;;;;;;5067622;28;19925;-77
2023/11/18 08:59:53;;;;;;;;;;;;;;;;;;5063051;28;19938;-79
2023/11/18 09:02:23;;;;;;;;;;;;;;;;;;5060740;28;20020;-77
2023/11/18 09:04:49;;;;;;;;;;;;;;;;;;5049900;28;19928;-78
2023/11/18 09:07:16;;;;;;;;;;;;;;;;;;5060670;28;20329;-79
2023/11/18 09:09:43;;;;;;;;;;;;;;;;;;5047070;28;19925;-79
2023/11/18 09:12:10;;;;;;;;;;;;;;;;;;5064854;28;19944;-77
2023/11/18 09:14:36;;;;;;;;;;;;;;;;;;5059637;28;19990;-78
2023/11/18 09:17:06;;;;;;;;;;;;;;;;;;5066635;28;20002;-76
2023/11/18 09:19:33;;;;;;;;;;;;;;;;;;5066991;28;20325;-79
2023/11/18 09:21:59;;;;;;;;;;;;;;;;;;5068093;28;19925;-77
2023/11/18 09:24:25;;;;;;;;;;;;;;;;;;5054414;28;19936;-77
2023/11/18 09:26:52;;;;;;;;;;;;;;;;;;5058227;28;19929;-77
2023/11/18 09:29:18;;;;;;;;;;;;;;;;;;5077834;28;19925;-77
2023/11/18 09:31:47;;;;;;;;;;;;;;;;;;5047830;28;19979;-77
2023/11/18 09:34:16;;;;;;;;;;;;;;;;;;5052082;28;19960;-78
2023/11/18 09:36:43;;;;;;;;;;;;;;;;;;5063735;28;19944;-78
2023/11/18 09:39:16;;;;;;;;;;;;;;;;;;5062850;28;19924;-76
2023/11/18 09:41:43;;;;;;;;;;;;;;;;;;5064990;28;19925;-76
2023/11/18 09:44:11;;;;;;;;;;;;;;;;;;5054623;28;19925;-78
2023/11/18 09:46:40;;;;;;;;;;;;;;;;;;5059769;28;20403;-78
2023/11/18 09:49:14;;;;;;;;;;;;;;;;;;5053302;28;19964;-77
2023/11/18 09:51:41;;;;;;;;;;;;;;;;;;5063271;28;19929;-77
2023/11/18 09:54:10;;;;;;;;;;;;;;;;;;5062766;28;19931;-77
2023/11/18 09:56:39;;;;;;;;;;;;;;;;;;5060579;28;20436;-78
2023/11/18 09:59:06;;;;;;;;;;;;;;;;;;5062847;28;19929;-76
2023/11/18 10:01:32;;;;;;;;;;;;;;;;;;5063757;28;20405;-77
2023/11/18 10:03:59;;;;;;;;;;;;;;;;;;5053112;28;19955;-76
2023/11/18 10:06:27;;;;;;;;;;;;;;;;;;5053527;28;20593;-77
2023/11/18 10:08:54;;;;;;;;;;;;;;;;;;5062852;28;20129;-76
2023/11/18 10:11:22;;;;;;;;;;;;;;;;;;5063092;28;20051;-77
2023/11/18 10:13:48;;;;;;;;;;;;;;;;;;5045194;28;19924;-76
2023/11/18 10:16:15;;;;;;;;;;;;;;;;;;5069324;28;19978;-75
2023/11/18 10:18:48;;;;;;;;;;;;;;;;;;5061227;28;19925;-79
2023/11/18 10:21:18;;;;;;;;;;;;;;;;;;5055022;28;20393;-78
2023/11/18 10:23:44;;;;;;;;;;;;;;;;;;5057442;28;19960;-74
2023/11/18 10:26:11;;;;;;;;;;;;;;;;;;5051927;28;19924;-77
2023/11/18 10:28:37;;;;;;;;;;;;;;;;;;5061485;28;19961;-77
2023/11/18 10:31:04;;;;;;;;;;;;;;;;;;5061378;28;19975;-77
2023/11/18 10:33:31;;;;;;;;;;;;;;;;;;5062741;28;19928;-78
2023/11/18 10:35:57;;;;;;;;;;;;;;;;;;5058389;28;20027;-77
2023/11/18 10:38:25;;;;;;;;;;;;;;;;;;5060351;28;19924;-79
2023/11/18 10:40:51;;;;;;;;;;;;;;;;;;5061911;28;19928;-78
2023/11/18 10:43:18;;;;;;;;;;;;;;;;;;5058016;28;19924;-78
2023/11/18 10:45:46;;;;;;;;;;;;;;;;;;5068583;28;19980;-80
2023/11/18 10:48:16;;;;;;;;;;;;;;;;;;5059723;28;20031;-77
2023/11/18 10:50:43;;;;;;;;;;;;;;;;;;5069285;28;19960;-77
2023/11/18 10:53:11;;;;;;;;;;;;;;;;;;5060615;28;19928;-77
2023/11/18 10:55:38;;;;;;;;;;;;;;;;;;5065094;28;20023;-77
2023/11/18 10:58:04;;;;;;;;;;;;;;;;;;5061434;28;19924;-79
2023/11/18 11:00:33;;;;;;;;;;;;;;;;;;5058725;28;19982;-76
2023/11/18 11:03:00;;;;;;;;;;;;;;;;;;5062154;28;19924;-78
2023/11/18 11:05:27;;;;;;;;;;;;;;;;;;5056744;28;20014;-76
2023/11/18 11:07:53;;;;;;;;;;;;;;;;;;5063370;28;20400;-77
2023/11/18 11:10:28;;;;;;;;;;;;;;;;;;5062418;28;19960;-77
2023/11/18 11:12:54;;;;;;;;;;;;;;;;;;5062010;28;20024;-75
2023/11/18 11:15:21;;;;;;;;;;;;;;;;;;5062414;28;19925;-78
2023/11/18 11:17:48;;;;;;;;;;;;;;;;;;5066200;28;19929;-77
2023/11/18 11:20:23;;;;;;;;;;;;;;;;;;5061104;28;20378;-77
2023/11/18 11:22:52;;;;;;;;;;;;;;;;;;5067919;28;19925;-75
2023/11/18 11:25:21;;;;;;;;;;;;;;;;;;5047677;28;20282;-76
2023/11/18 11:27:51;;;;;;;;;;;;;;;;;;5046850;28;19929;-75
2023/11/18 11:30:18;;;;;;;;;;;;;;;;;;5063818;28;19929;-76
2023/11/18 11:32:45;;;;;;;;;;;;;;;;;;5044376;28;20377;-77
2023/11/18 11:35:18;;;;;;;;;;;;;;;;;;5047103;28;20373;-77
2023/11/18 11:37:46;;;;;;;;;;;;;;;;;;5062447;28;19933;-78
2023/11/18 11:40:21;;;;;;;;;;;;;;;;;;5058594;28;19925;-78
2023/11/18 11:42:48;;;;;;;;;;;;;;;;;;5057577;28;19948;-77
2023/11/18 11:45:19;;;;;;;;;;;;;;;;;;5060981;28;20404;-77
2023/11/18 11:47:46;;;;;;;;;;;;;;;;;;5063177;28;20385;-77
2023/11/18 11:50:13;;;;;;;;;;;;;;;;;;5059318;28;20391;-77
2023/11/18 11:52:39;;;;;;;;;;;;;;;;;;5062857;28;20315;-77
2023/11/18 11:55:06;;;;;;;;;;;;;;;;;;5047435;28;19982;-77
2023/11/18 11:57:36;;;;;;;;;;;;;;;;;;5062616;28;20369;-78
2023/11/18 12:00:14;;;;;;;;;;;;;;;;;;5054789;28;19978;-77
2023/11/18 12:02:41;;;;;;;;;;;;;;;;;;5064021;28;20344;-78
2023/11/18 12:05:08;;;;;;;;;;;;;;;;;;5080817;28;20356;-78
2023/11/18 12:07:38;;;;;;;;;;;;;;;;;;5065154;28;20313;-79
2023/11/18 12:10:06;;;;;;;;;;;;;;;;;;5063471;28;19928;-79
2023/11/18 12:12:33;;;;;;;;;;;;;;;;;;5066660;28;19924;-78
2023/11/18 12:15:11;;;;;;;;;;;;;;;;;;5055813;28;20014;-78
2023/11/18 12:17:41;;;;;;;;;;;;;;;;;;5063647;28;20027;-78
2023/11/18 12:20:18;;;;;;;;;;;;;;;;;;5051176;28;20339;-77
2023/11/18 12:22:46;;;;;;;;;;;;;;;;;;5060146;28;19971;-79
2023/11/18 12:25:14;;;;;;;;;;;;;;;;;;5040534;28;19990;-77
2023/11/18 12:27:51;;;;;;;;;;;;;;;;;;5049738;28;20019;-78
2023/11/18 12:30:25;;;;;;;;;;;;;;;;;;5067003;28;19948;-79
2023/11/18 12:32:53;;;;;;;;;;;;;;;;;;5048709;28;19929;-76
2023/11/18 12:35:22;;;;;;;;;;;;;;;;;;5066070;28;19929;-78
2023/11/18 12:37:49;;;;;;;;;;;;;;;;;;5065047;28;19937;-78
2023/11/18 12:40:17;;;;;;;;;;;;;;;;;;5065061;28;20381;-78
2023/11/18 12:42:44;;;;;;;;;;;;;;;;;;5060320;28;19969;-76
2023/11/18 12:45:14;;;;;;;;;;;;;;;;;;5059929;28;19925;-77
2023/11/18 12:47:40;;;;;;;;;;;;;;;;;;5044109;28;19978;-77
2023/11/18 12:50:07;;;;;;;;;;;;;;;;;;5049592;28;19925;-79
2023/11/18 12:52:33;;;;;;;;;;;;;;;;;;5069770;28;19925;-78
2023/11/18 12:55:01;;;;;;;;;;;;;;;;;;5067091;28;19929;-78
2023/11/18 12:57:31;;;;;;;;;;;;;;;;;;5062195;28;19979;-78
2023/11/18 12:59:57;;;;;;;;;;;;;;;;;;5065090;28;20403;-76
2023/11/18 13:02:23;;;;;;;;;;;;;;;;;;5064735;28;19928;-77
2023/11/18 13:04:53;;;;;;;;;;;;;;;;;;5070223;28;20016;-77
2023/11/18 13:07:20;;;;;;;;;;;;;;;;;;5065381;28;19924;-78
2023/11/18 13:09:47;;;;;;;;;;;;;;;;;;5063759;28;20024;-76
2023/11/18 13:12:19;;;;;;;;;;;;;;;;;;5066492;28;19931;-77
2023/11/18 13:14:45;;;;;;;;;;;;;;;;;;5062521;28;19932;-79
2023/11/18 13:17:12;;;;;;;;;;;;;;;;;;5063888;28;20357;-77
2023/11/18 13:19:39;;;;;;;;;;;;;;;;;;5065161;28;19925;-75
2023/11/18 13:22:07;;;;;;;;;;;;;;;;;;5062147;28;19938;-79
2023/11/18 13:24:34;;;;;;;;;;;;;;;;;;5048795;28;19928;-77
2023/11/18 13:27:06;;;;;;;;;;;;;;;;;;5062740;28;19933;-78
2023/11/18 13:29:34;;;;;;;;;;;;;;;;;;5066106;28;20015;-78
2023/11/18 13:32:03;;;;;;;;;;;;;;;;;;5047843;28;20375;-79
2023/11/18 13:34:37;;;;;;;;;;;;;;;;;;5061840;28;19994;-78
2023/11/18 13:37:05;;;;;;;;;;;;;;;;;;5059922;28;19925;-78
2023/11/18 13:39:32;;;;;;;;;;;;;;;;;;5070544;28;19932;-78
2023/11/18 13:41:59;;;;;;;;;;;;;;;;;;5056322;28;20037;-77
2023/11/18 13:44:28;;;;;;;;;;;;;;;;;;5061959;28;20039;-78
2023/11/18 13:46:55;;;;;;;;;;;;;;;;;;5062020;28;19960;-79
2023/11/18 13:49:21;;;;;;;;;;;;;;;;;;5065782;28;19925;-78
2023/11/18 13:51:49;;;;;;;;;;;;;;;;;;5063766;28;19994;-78
2023/11/18 13:54:57;;;;;;;;;;;;;;;;;;5098533;27;19943;-79
2023/11/18 13:57:23;;;;;;;;;;;;;;;;;;5090912;28;19932;-77
2023/11/18 13:59:49;;;;;;;;;;;;;;;;;;5094615;28;19928;-78
2023/11/18 14:02:16;;;;;;;;;;;;;;;;;;5121570;27;20341;-79
2023/11/18 14:04:44;;;;;;;;;;;;;;;;;;5091347;28;19928;-78
2023/11/18 14:07:12;;;;;;;;;;;;;;;;;;5091255;28;20340;-78
2023/11/18 14:09:41;;;;;;;;;;;;;;;;;;5092402;28;19979;-77
2023/11/18 14:12:08;;;;;;;;;;;;;;;;;;5098115;28;20115;-78
2023/11/18 14:14:34;;;;;;;;;;;;;;;;;;5090486;28;20667;-78
2023/11/18 14:17:01;;;;;;;;;;;;;;;;;;5096641;28;19924;-81
2023/11/18 14:19:27;;;;;;;;;;;;;;;;;;5089714;28;19947;-80
2023/11/18 14:21:54;;;;;;;;;;;;;;;;;;5079554;28;19993;-79
2023/11/18 14:24:22;;;;;;;;;;;;;;;;;;5077868;28;19991;-79
2023/11/18 14:26:50;;;;;;;;;;;;;;;;;;5089207;28;19929;-79
2023/11/18 14:29:16;;;;;;;;;;;;;;;;;;5094651;28;20019;-78
2023/11/18 14:31:44;;;;;;;;;;;;;;;;;;5095982;28;19924;-77
2023/11/18 14:34:10;;;;;;;;;;;;;;;;;;5073988;28;19959;-79
2023/11/18 14:36:37;;;;;;;;;;;;;;;;;;5091711;28;19924;-77
2023/11/18 14:39:03;;;;;;;;;;;;;;;;;;5098743;28;19932;-80
2023/11/18 14:41:30;;;;;;;;;;;;;;;;;;5073375;28;20392;-78
2023/11/18 14:43:57;;;;;;;;;;;;;;;;;;5092450;28;19924;-80
2023/11/18 14:46:24;;;;;;;;;;;;;;;;;;5088144;28;20341;-79
2023/11/18 14:48:51;;;;;;;;;;;;;;;;;;5097415;28;19925;-77
2023/11/18 14:51:17;;;;;;;;;;;;;;;;;;5095914;28;20334;-79
2023/11/18 14:53:44;;;;;;;;;;;;;;;;;;5094076;28;19928;-77
2023/11/18 14:56:10;;;;;;;;;;;;;;;;;;5090152;28;19924;-81
2023/11/18 14:58:37;;;;;;;;;;;;;;;;;;5088864;28;20015;-80
2023/11/18 15:01:03;;;;;;;;;;;;;;;;;;5093513;28;19973;-79
2023/11/18 15:03:30;;;;;;;;;;;;;;;;;;5091290;28;19981;-79
2023/11/18 15:05:57;;;;;;;;;;;;;;;;;;5077190;28;19934;-80
2023/11/18 15:08:23;;;;;;;;;;;;;;;;;;5073764;28;19928;-79
2023/11/18 15:10:50;;;;;;;;;;;;;;;;;;5079308;28;20391;-79
2023/11/18 15:13:17;;;;;;;;;;;;;;;;;;5076337;28;19931;-79
2023/11/18 15:15:47;;;;;;;;;;;;;;;;;;5075388;28;19924;-80
2023/11/18 15:18:14;;;;;;;;;;;;;;;;;;5076519;28;20266;-80
2023/11/18 15:20:42;;;;;;;;;;;;;;;;;;5061250;28;19928;-80
2023/11/18 15:23:12;;;;;;;;;;;;;;;;;;5054508;28;19931;-79
2023/11/18 15:25:38;;;;;;;;;;;;;;;;;;5060662;28;19931;-80
2023/11/18 15:28:09;;;;;;;;;;;;;;;;;;5076480;28;20385;-82
2023/11/18 15:30:35;;;;;;;;;;;;;;;;;;5080514;28;19924;-80
2023/11/18 15:33:02;;;;;;;;;;;;;;;;;;5076085;28;19924;-82
2023/11/18 15:35:28;;;;;;;;;;;;;;;;;;5081152;28;19933;-82
2023/11/18 15:37:55;;;;;;;;;;;;;;;;;;5073913;28;19924;-82
2023/11/18 15:40:24;;;;;;;;;;;;;;;;;;5076467;28;20315;-82
2023/11/18 15:42:51;;;;;;;;;;;;;;;;;;5079579;28;19931;-82
2023/11/18 15:45:18;;;;;;;;;;;;;;;;;;5073287;28;20340;-82
2023/11/18 15:47:45;;;;;;;;;;;;;;;;;;5081503;28;19924;-80
2023/11/18 15:50:15;;;;;;;;;;;;;;;;;;5068830;28;20404;-82
2023/11/18 15:52:43;;;;;;;;;;;;;;;;;;5076527;28;19929;-83
2023/11/18 15:55:17;;;;;;;;;;;;;;;;;;5078849;28;20018;-82
2023/11/18 15:57:43;;;;;;;;;;;;;;;;;;5074539;28;19924;-80
2023/11/18 16:00:16;;;;;;;;;;;;;;;;;;5060796;28;20289;-81
2023/11/18 16:02:44;;;;;;;;;;;;;;;;;;5075385;28;20434;-80
2023/11/18 16:05:13;;;;;;;;;;;;;;;;;;5061315;28;19931;-82
2023/11/18 16:07:40;;;;;;;;;;;;;;;;;;5078674;28;20028;-82
2023/11/18 16:10:06;;;;;;;;;;;;;;;;;;5075602;28;20019;-83
2023/11/18 16:12:33;;;;;;;;;;;;;;;;;;5080045;28;19940;-84
2023/11/18 16:14:59;;;;;;;;;;;;;;;;;;5057312;28;19928;-82
2023/11/18 16:17:26;;;;;;;;;;;;;;;;;;5076149;28;20015;-83
2023/11/18 16:19:53;;;;;;;;;;;;;;;;;;5078792;28;19931;-83
2023/11/18 16:22:20;;;;;;;;;;;;;;;;;;5064849;28;19951;-84
2023/11/18 16:24:47;;;;;;;;;;;;;;;;;;5075298;28;19925;-82
2023/11/18 16:27:14;;;;;;;;;;;;;;;;;;5079837;28;19959;-82
2023/11/18 16:29:41;;;;;;;;;;;;;;;;;;5078383;28;19931;-84
2023/11/18 16:32:09;;;;;;;;;;;;;;;;;;5081001;28;19959;-84
2023/11/18 16:34:36;;;;;;;;;;;;;;;;;;5078202;28;20356;-82
2023/11/18 16:37:02;;;;;;;;;;;;;;;;;;5078218;28;19925;-82
2023/11/18 16:39:28;;;;;;;;;;;;;;;;;;5079005;28;20455;-83
2023/11/18 16:41:55;;;;;;;;;;;;;;;;;;5077504;28;19929;-82
2023/11/18 16:44:21;;;;;;;;;;;;;;;;;;5081626;28;20388;-82
2023/11/18 16:46:49;;;;;;;;;;;;;;;;;;5076092;28;19986;-83
2023/11/18 16:49:16;;;;;;;;;;;;;;;;;;5073958;28;19930;-82